createdAt,value
2023-01-17T00:01:17.829Z,97072.63
2023-01-17T00:04:02.627Z,97076.34
2023-01-17T00:06:48.908Z,97068.75
2023-01-17T00:09:33.677Z,97073.38
2023-01-17T00:12:01.930Z,97047.09
2023-01-17T00:14:29.265Z,97056.75
2023-01-17T00:16:56.633Z,97049.75
2023-01-17T00:19:41.596Z,97054.97
2023-01-17T00:22:38.888Z,97056.06
2023-01-17T00:25:24.645Z,97050.63
2023-01-17T00:27:51.009Z,97054.88
2023-01-17T00:30:17.571Z,97060.28
2023-01-17T00:32:43.909Z,97056.81
2023-01-17T00:35:10.252Z,97054.69
2023-01-17T00:37:37.920Z,97054.69
2023-01-17T00:40:05.255Z,97049.38
2023-01-17T00:42:31.669Z,97054.50
2023-01-17T00:45:16.693Z,97053.47
2023-01-17T00:48:02.828Z,97062.94
2023-01-17T00:50:48.114Z,97064.47
2023-01-17T00:53:34.682Z,97066.84
2023-01-17T00:56:19.967Z,97068.25
2023-01-17T00:59:05.223Z,97056.94
2023-01-17T01:01:50.644Z,97071.59
2023-01-17T01:04:36.073Z,97067.13
2023-01-17T01:07:21.239Z,97069.63
2023-01-17T01:10:07.693Z,97067.66
2023-01-17T01:12:52.513Z,97068.28
2023-01-17T01:15:37.184Z,97082.41
2023-01-17T01:18:26.000Z,97081.44
2023-01-17T01:21:11.258Z,97069.50
2023-01-17T01:23:56.479Z,97070.88
2023-01-17T01:26:42.884Z,97075.91
2023-01-17T01:29:27.555Z,97069.84
2023-01-17T01:32:12.386Z,97073.63
2023-01-17T01:34:39.744Z,97070.31
2023-01-17T01:37:07.101Z,97071.53
2023-01-17T01:39:34.472Z,97079.28
2023-01-17T01:42:03.146Z,97074.50
2023-01-17T01:44:45.109Z,97071.75
2023-01-17T01:47:16.305Z,97066.97
2023-01-17T01:49:47.434Z,97067.13
2023-01-17T01:52:16.603Z,97073.00
2023-01-17T01:54:48.588Z,97071.84
2023-01-17T01:57:21.265Z,97062.63
2023-01-17T01:59:53.690Z,97062.34
2023-01-17T02:02:21.335Z,97064.16
2023-01-17T02:04:49.438Z,97071.06
2023-01-17T02:07:22.042Z,97066.13
2023-01-17T02:09:50.029Z,97062.88
2023-01-17T02:12:20.871Z,97065.75
2023-01-17T02:14:48.304Z,97069.53
2023-01-17T02:17:27.398Z,97061.72
2023-01-17T02:20:22.883Z,97068.09
2023-01-17T02:23:23.683Z,97071.28
2023-01-17T02:26:17.128Z,97070.34
2023-01-17T02:29:06.852Z,97072.03
2023-01-17T02:31:43.881Z,97065.56
2023-01-17T02:34:18.203Z,97069.66
2023-01-17T02:36:49.690Z,97080.84
2023-01-17T02:39:23.125Z,97082.34
2023-01-17T02:41:54.091Z,97073.84
2023-01-17T02:44:22.220Z,97077.28
2023-01-17T02:46:54.410Z,97074.16
2023-01-17T02:49:25.861Z,97084.19
2023-01-17T02:52:08.833Z,97085.13
2023-01-17T02:55:01.131Z,97084.19
2023-01-17T02:57:52.547Z,97091.78
2023-01-17T03:00:27.127Z,97093.13
2023-01-17T03:03:02.876Z,97093.00
2023-01-17T03:05:36.542Z,97100.78
2023-01-17T03:08:04.835Z,97101.41
2023-01-17T03:10:33.860Z,97108.22
2023-01-17T03:13:03.324Z,97112.41
2023-01-17T03:15:30.685Z,97112.72
2023-01-17T03:18:03.838Z,97120.25
2023-01-17T03:20:31.569Z,97109.63
2023-01-17T03:22:58.954Z,97119.44
2023-01-17T03:25:27.155Z,97124.75
2023-01-17T03:27:54.535Z,97128.72
2023-01-17T03:30:23.030Z,97129.50
2023-01-17T03:32:50.767Z,97137.34
2023-01-17T03:35:19.553Z,97140.53
2023-01-17T03:37:46.897Z,97137.75
2023-01-17T03:40:14.427Z,97147.56
2023-01-17T03:42:42.675Z,97143.06
2023-01-17T03:45:10.834Z,97146.78
2023-01-17T03:47:38.255Z,97139.75
2023-01-17T03:50:06.492Z,97149.38
2023-01-17T03:52:35.309Z,97157.28
2023-01-17T03:55:03.296Z,97154.13
2023-01-17T03:57:30.776Z,97156.63
2023-01-17T03:59:58.166Z,97160.09
2023-01-17T04:02:25.839Z,97159.03
2023-01-17T04:04:53.228Z,97174.13
2023-01-17T04:07:20.582Z,97175.38
2023-01-17T04:09:49.595Z,97175.69
2023-01-17T04:12:17.056Z,97170.88
2023-01-17T04:14:44.647Z,97177.53
2023-01-17T04:17:13.173Z,97191.00
2023-01-17T04:19:43.372Z,97193.31
2023-01-17T04:22:10.971Z,97172.94
2023-01-17T04:24:38.673Z,97188.25
2023-01-17T04:27:07.490Z,97200.28
2023-01-17T04:29:34.883Z,97199.44
2023-01-17T04:32:02.247Z,97202.22
2023-01-17T04:34:29.586Z,97205.38
2023-01-17T04:36:56.947Z,97214.06
2023-01-17T04:39:24.450Z,97212.47
2023-01-17T04:41:51.806Z,97218.09
2023-01-17T04:44:20.486Z,97219.31
2023-01-17T04:46:47.850Z,97232.72
2023-01-17T04:49:15.198Z,97237.78
2023-01-17T04:51:42.965Z,97236.97
2023-01-17T04:54:10.349Z,97236.66
2023-01-17T04:56:37.691Z,97248.22
2023-01-17T04:59:05.170Z,97248.75
2023-01-17T05:01:33.905Z,97250.38
2023-01-17T05:04:01.373Z,97244.50
2023-01-17T05:06:28.767Z,97255.81
2023-01-17T05:08:56.181Z,97260.16
2023-01-17T05:11:23.542Z,97272.03
2023-01-17T05:13:50.910Z,97266.97
2023-01-17T05:16:19.334Z,97271.72
2023-01-17T05:18:48.065Z,97273.41
2023-01-17T05:21:16.292Z,97270.66
2023-01-17T05:23:43.642Z,97275.13
2023-01-17T05:26:11.015Z,97280.28
2023-01-17T05:28:38.374Z,97281.38
2023-01-17T05:31:05.990Z,97279.41
2023-01-17T05:33:33.444Z,97272.16
2023-01-17T05:36:02.117Z,97274.97
2023-01-17T05:38:29.469Z,97283.41
2023-01-17T05:40:56.881Z,97275.81
2023-01-17T05:43:24.250Z,97283.22
2023-01-17T05:45:51.602Z,97283.56
2023-01-17T05:48:18.978Z,97287.38
2023-01-17T05:50:46.325Z,97288.72
2023-01-17T05:53:16.810Z,97287.06
2023-01-17T05:55:44.729Z,97298.75
2023-01-17T05:58:16.109Z,97297.63
2023-01-17T06:00:43.604Z,97293.31
2023-01-17T06:03:11.390Z,97285.69
2023-01-17T06:05:39.055Z,97315.50
2023-01-17T06:08:07.005Z,97313.28
2023-01-17T06:10:35.746Z,97311.56
2023-01-17T06:13:05.396Z,97320.75
2023-01-17T06:15:33.499Z,97328.94
2023-01-17T06:18:04.383Z,97331.22
2023-01-17T06:20:31.785Z,97338.38
2023-01-17T06:23:00.943Z,97326.66
2023-01-17T06:25:28.299Z,97337.44
2023-01-17T06:27:57.100Z,97334.81
2023-01-17T06:30:24.531Z,97329.16
2023-01-17T06:32:55.201Z,97325.41
2023-01-17T06:35:22.923Z,97330.41
2023-01-17T06:37:53.624Z,97329.59
2023-01-17T06:40:20.959Z,97343.88
2023-01-17T06:42:48.648Z,97343.69
2023-01-17T06:45:17.381Z,97350.25
2023-01-17T06:47:45.172Z,97345.63
2023-01-17T06:50:14.504Z,97347.88
2023-01-17T06:52:42.586Z,97357.72
2023-01-17T06:55:10.961Z,97360.69
2023-01-17T06:57:38.313Z,97357.59
2023-01-17T07:00:07.086Z,97363.81
2023-01-17T07:02:35.756Z,97367.44
2023-01-17T07:05:03.101Z,97369.66
2023-01-17T07:07:33.671Z,97380.84
2023-01-17T07:10:03.374Z,97398.19
2023-01-17T07:12:30.730Z,97402.69
2023-01-17T07:14:58.119Z,97396.69
2023-01-17T07:17:25.636Z,97399.72
2023-01-17T07:19:54.348Z,97400.59
2023-01-17T07:22:21.681Z,97406.91
2023-01-17T07:24:49.049Z,97405.53
2023-01-17T07:27:16.381Z,97410.00
2023-01-17T07:29:43.773Z,97400.78
2023-01-17T07:32:11.772Z,97403.56
2023-01-17T07:34:39.340Z,97402.22
2023-01-17T07:37:08.445Z,97401.91
2023-01-17T07:39:37.245Z,97398.81
2023-01-17T07:42:04.722Z,97414.28
2023-01-17T07:44:32.112Z,97407.28
2023-01-17T07:46:59.668Z,97403.88
2023-01-17T07:49:27.196Z,97409.44
2023-01-17T07:51:55.213Z,97419.13
2023-01-17T07:54:23.801Z,97428.50
2023-01-17T07:56:51.222Z,97421.69
2023-01-17T07:59:18.883Z,97429.63
2023-01-17T08:01:46.452Z,97418.44
2023-01-17T08:04:14.186Z,97427.66
2023-01-17T08:06:47.401Z,97433.97
2023-01-17T08:09:14.998Z,97443.78
2023-01-17T08:11:43.721Z,97426.00
2023-01-17T08:14:11.116Z,97433.06
2023-01-17T08:16:40.046Z,97434.41
2023-01-17T08:19:07.449Z,97438.94
2023-01-17T08:21:34.833Z,97433.59
2023-01-17T08:24:02.294Z,97442.81
2023-01-17T08:26:29.678Z,97447.69
2023-01-17T08:29:01.100Z,97441.97
2023-01-17T08:31:29.471Z,97448.22
2023-01-17T08:33:57.947Z,97455.41
2023-01-17T08:36:26.167Z,97466.81
2023-01-17T08:38:53.645Z,97476.34
2023-01-17T08:41:21.760Z,97471.41
2023-01-17T08:43:49.890Z,97471.56
2023-01-17T08:46:19.626Z,97473.84
2023-01-17T08:48:47.341Z,97468.38
2023-01-17T08:51:14.778Z,97485.00
2023-01-17T08:53:42.383Z,97481.91
2023-01-17T08:56:10.293Z,97483.88
2023-01-17T08:58:37.668Z,97480.19
2023-01-17T09:01:06.846Z,97478.31
2023-01-17T09:03:38.287Z,97485.19
2023-01-17T09:06:08.325Z,97493.22
2023-01-17T09:08:36.377Z,97490.53
2023-01-17T09:11:04.451Z,97495.63
2023-01-17T09:13:31.936Z,97495.56
2023-01-17T09:16:00.046Z,97501.41
2023-01-17T09:18:28.225Z,97501.28
2023-01-17T09:20:59.191Z,97515.66
2023-01-17T09:23:28.568Z,97523.72
2023-01-17T09:25:57.305Z,97500.75
2023-01-17T09:28:25.765Z,97531.09
2023-01-17T09:30:53.552Z,97513.41
2023-01-17T09:33:23.108Z,97510.84
2023-01-17T09:35:50.798Z,97519.47
2023-01-17T09:38:21.654Z,97519.06
2023-01-17T09:40:49.529Z,97526.97
2023-01-17T09:43:24.905Z,97521.78
2023-01-17T09:45:52.819Z,97511.41
2023-01-17T09:48:29.347Z,97529.38
2023-01-17T09:51:01.561Z,97522.59
2023-01-17T09:53:35.643Z,97531.66
2023-01-17T09:56:07.313Z,97523.75
2023-01-17T09:58:44.310Z,97537.69
2023-01-17T10:01:18.796Z,97543.47
2023-01-17T10:04:06.209Z,97530.66
2023-01-17T10:06:51.863Z,97543.31
2023-01-17T10:09:40.929Z,97550.00
2023-01-17T10:12:19.809Z,97547.09
2023-01-17T10:15:09.563Z,97535.69
2023-01-17T10:17:48.981Z,97527.38
2023-01-17T10:20:37.270Z,97535.69
2023-01-17T10:23:22.105Z,97530.81
2023-01-17T10:25:52.385Z,97533.59
2023-01-17T10:28:23.200Z,97539.97
2023-01-17T10:30:52.991Z,97533.69
2023-01-17T10:33:22.908Z,97539.72
2023-01-17T10:35:57.692Z,97549.84
2023-01-17T10:38:31.497Z,97553.91
2023-01-17T10:41:05.626Z,97553.59
2023-01-17T10:43:45.340Z,97569.06
2023-01-17T10:46:17.985Z,97569.13
2023-01-17T10:48:49.447Z,97572.03
2023-01-17T10:51:43.784Z,97576.31
2023-01-17T10:54:24.717Z,97580.50
2023-01-17T10:56:53.586Z,97584.16
2023-01-17T10:59:30.273Z,97584.16
2023-01-17T11:01:58.214Z,97581.81
2023-01-17T11:04:35.764Z,97576.81
2023-01-17T11:07:15.296Z,97586.44
2023-01-17T11:09:44.507Z,97589.47
2023-01-17T11:12:23.854Z,97596.00
2023-01-17T11:15:00.689Z,97597.09
2023-01-17T11:17:29.439Z,97585.47
2023-01-17T11:20:17.180Z,97576.22
2023-01-17T11:22:49.685Z,97573.44
2023-01-17T11:25:23.048Z,97576.66
2023-01-17T11:28:02.518Z,97567.13
2023-01-17T11:30:30.276Z,97574.75
2023-01-17T11:32:59.087Z,97585.59
2023-01-17T11:35:29.814Z,97585.53
2023-01-17T11:38:06.736Z,97575.41
2023-01-17T11:40:38.529Z,97570.72
2023-01-17T11:43:20.990Z,97574.16
2023-01-17T11:46:02.029Z,97569.94
2023-01-17T11:48:35.697Z,97563.69
2023-01-17T11:51:04.397Z,97567.78
2023-01-17T11:53:34.316Z,97570.66
2023-01-17T11:56:06.714Z,97563.63
2023-01-17T11:58:39.298Z,97571.47
2023-01-17T12:01:30.273Z,97575.59
2023-01-17T12:04:21.036Z,97583.88
2023-01-17T12:06:58.780Z,97576.91
2023-01-17T12:09:36.484Z,97582.00
2023-01-17T12:12:30.128Z,97575.41
2023-01-17T12:15:09.341Z,97564.22
2023-01-17T12:17:54.046Z,97567.31
2023-01-17T12:20:28.867Z,97566.88
2023-01-17T12:23:14.057Z,97572.31
2023-01-17T12:25:57.548Z,97571.22
2023-01-17T12:28:47.784Z,97571.03
2023-01-17T12:31:26.350Z,97562.84
2023-01-17T12:33:58.441Z,97561.91
2023-01-17T12:36:39.808Z,97571.59
2023-01-17T12:39:11.745Z,97564.97
2023-01-17T12:41:56.892Z,97568.44
2023-01-17T12:44:38.663Z,97570.97
2023-01-17T12:47:07.524Z,97571.91
2023-01-17T12:49:41.912Z,97576.69
2023-01-17T12:52:15.909Z,97569.00
2023-01-17T12:54:47.654Z,97561.59
2023-01-17T12:57:18.462Z,97574.38
2023-01-17T12:59:51.936Z,97565.06
2023-01-17T13:02:32.120Z,97561.22
2023-01-17T13:05:07.513Z,97568.63
2023-01-17T13:07:43.095Z,97566.41
2023-01-17T13:10:23.187Z,97570.41
2023-01-17T13:12:51.986Z,97575.56
2023-01-17T13:15:23.211Z,97576.50
2023-01-17T13:17:58.111Z,97588.09
2023-01-17T13:20:32.207Z,97590.38
2023-01-17T13:23:08.991Z,97604.91
2023-01-17T13:25:45.393Z,97602.84
2023-01-17T13:28:29.773Z,97594.38
2023-01-17T13:31:13.894Z,97610.69
2023-01-17T13:34:03.934Z,97606.31
2023-01-17T13:36:47.888Z,97607.03
2023-01-17T13:39:34.780Z,97605.13
2023-01-17T13:42:11.638Z,97609.44
2023-01-17T13:44:39.121Z,97612.63
2023-01-17T13:47:28.007Z,97608.06
2023-01-17T13:49:57.590Z,97615.78
2023-01-17T13:52:33.411Z,97620.59
2023-01-17T13:55:02.527Z,97625.56
2023-01-17T13:57:44.138Z,97621.34
2023-01-17T14:00:50.504Z,97623.34
2023-01-17T14:04:07.101Z,97627.53
2023-01-17T14:06:40.612Z,97624.59
2023-01-17T14:09:31.021Z,97631.06
2023-01-17T14:12:05.401Z,97631.16
2023-01-17T14:14:51.893Z,97638.06
2023-01-17T14:17:55.678Z,97641.56
2023-01-17T14:20:46.169Z,97630.53
2023-01-17T14:23:28.669Z,97629.84
2023-01-17T14:26:00.711Z,97627.13
2023-01-17T14:28:32.969Z,97625.63
2023-01-17T14:31:03.313Z,97630.25
2023-01-17T14:33:35.504Z,97625.34
2023-01-17T14:36:07.110Z,97630.66
2023-01-17T14:38:41.891Z,97630.09
2023-01-17T14:41:12.130Z,97636.25
2023-01-17T14:43:42.929Z,97638.78
2023-01-17T14:46:19.312Z,97645.47
2023-01-17T14:48:47.671Z,97657.94
2023-01-17T14:51:21.268Z,97653.44
2023-01-17T14:53:54.167Z,97660.56
2023-01-17T14:56:21.566Z,97654.84
2023-01-17T14:58:49.121Z,97646.56
2023-01-17T15:01:20.085Z,97651.72
2023-01-17T15:03:50.192Z,97655.50
2023-01-17T15:06:21.983Z,97653.06
2023-01-17T15:08:51.793Z,97661.44
2023-01-17T15:11:23.398Z,97655.72
2023-01-17T15:13:54.886Z,97664.41
2023-01-17T15:16:25.110Z,97672.22
2023-01-17T15:18:53.816Z,97663.34
2023-01-17T15:21:25.611Z,97666.84
2023-01-17T15:23:56.095Z,97667.34
2023-01-17T15:26:27.805Z,97664.59
2023-01-17T15:29:03.467Z,97663.53
2023-01-17T15:31:41.216Z,97673.63
2023-01-17T15:34:13.964Z,97677.47
2023-01-17T15:36:42.708Z,97671.28
2023-01-17T15:39:20.123Z,97673.56
2023-01-17T15:41:49.717Z,97669.34
2023-01-17T15:44:31.120Z,97664.25
2023-01-17T15:47:04.096Z,97678.78
2023-01-17T15:49:31.812Z,97677.63
2023-01-17T15:52:16.153Z,97683.91
2023-01-17T15:54:47.512Z,97674.09
2023-01-17T15:57:25.407Z,97679.41
2023-01-17T15:59:54.646Z,97689.81
2023-01-17T16:02:27.394Z,97677.78
2023-01-17T16:04:55.152Z,97677.59
2023-01-17T16:07:31.221Z,97673.00
2023-01-17T16:10:06.532Z,97671.69
2023-01-17T16:12:33.918Z,97672.84
2023-01-17T16:15:12.483Z,97672.34
2023-01-17T16:17:42.524Z,97679.59
2023-01-17T16:20:16.018Z,97680.38
2023-01-17T16:22:44.984Z,97674.94
2023-01-17T16:25:17.220Z,97673.31
2023-01-17T16:27:44.693Z,97674.69
2023-01-17T16:30:15.143Z,97667.81
2023-01-17T16:32:42.594Z,97676.09
2023-01-17T16:35:18.888Z,97673.38
2023-01-17T16:37:50.306Z,97679.19
2023-01-17T16:40:18.367Z,97668.16
2023-01-17T16:42:46.226Z,97673.22
2023-01-17T16:45:14.906Z,97674.19
2023-01-17T16:47:43.171Z,97681.31
2023-01-17T16:50:12.487Z,97670.91
2023-01-17T16:52:40.516Z,97665.53
2023-01-17T16:55:10.663Z,97660.75
2023-01-17T16:57:38.025Z,97669.34
2023-01-17T17:00:07.520Z,97659.00
2023-01-17T17:02:35.282Z,97664.69
2023-01-17T17:05:02.711Z,97660.00
2023-01-17T17:07:30.060Z,97661.78
2023-01-17T17:09:57.416Z,97662.28
2023-01-17T17:12:26.208Z,97664.75
2023-01-17T17:14:53.595Z,97658.25
2023-01-17T17:17:20.951Z,97671.97
2023-01-17T17:19:48.536Z,97661.28
2023-01-17T17:22:15.904Z,97662.19
2023-01-17T17:24:47.037Z,97658.47
2023-01-17T17:27:14.435Z,97658.25
2023-01-17T17:29:43.104Z,97656.75
2023-01-17T17:32:11.484Z,97657.78
2023-01-17T17:34:39.128Z,97665.47
2023-01-17T17:37:06.517Z,97673.63
2023-01-17T17:39:33.864Z,97675.28
2023-01-17T17:42:01.320Z,97674.16
2023-01-17T17:44:28.706Z,97678.41
2023-01-17T17:46:57.374Z,97687.06
2023-01-17T17:49:24.889Z,97684.66
2023-01-17T17:51:52.260Z,97684.06
2023-01-17T17:54:21.991Z,97683.19
2023-01-17T17:56:49.365Z,97686.66
2023-01-17T17:59:19.409Z,97689.53
2023-01-17T18:01:47.479Z,97688.03
2023-01-17T18:04:16.128Z,97680.47
2023-01-17T18:06:43.620Z,97688.25
2023-01-17T18:09:12.228Z,97698.69
2023-01-17T18:11:41.711Z,97686.56
2023-01-17T18:14:11.769Z,97694.53
2023-01-17T18:16:41.451Z,97690.09
2023-01-17T18:19:12.939Z,97693.47
2023-01-17T18:21:41.752Z,97690.00
2023-01-17T18:24:11.720Z,97692.13
2023-01-17T18:26:41.419Z,97698.41
2023-01-17T18:29:12.403Z,97686.22
2023-01-17T18:31:39.862Z,97695.94
2023-01-17T18:34:09.259Z,97688.63
2023-01-17T18:36:36.891Z,97693.91
2023-01-17T18:39:10.903Z,97703.63
2023-01-17T18:41:38.334Z,97690.44
2023-01-17T18:44:06.772Z,97702.56
2023-01-17T18:46:35.042Z,97700.25
2023-01-17T18:49:03.161Z,97711.03
2023-01-17T18:51:31.837Z,97704.47
2023-01-17T18:54:02.791Z,97704.13
2023-01-17T18:56:34.068Z,97696.22
2023-01-17T18:59:02.183Z,97703.44
2023-01-17T19:01:33.697Z,97710.41
2023-01-17T19:04:03.819Z,97705.91
2023-01-17T19:06:32.903Z,97701.56
2023-01-17T19:09:00.598Z,97712.19
2023-01-17T19:11:29.096Z,97709.56
2023-01-17T19:13:57.902Z,97710.22
2023-01-17T19:16:27.927Z,97706.53
2023-01-17T19:18:56.807Z,97714.44
2023-01-17T19:21:28.180Z,97720.56
2023-01-17T19:23:56.401Z,97723.69
2023-01-17T19:26:26.381Z,97725.72
2023-01-17T19:28:55.765Z,97721.28
2023-01-17T19:31:26.260Z,97724.34
2023-01-17T19:33:57.240Z,97734.34
2023-01-17T19:36:26.786Z,97731.72
2023-01-17T19:39:04.469Z,97717.47
2023-01-17T19:41:33.119Z,97719.88
2023-01-17T19:44:05.512Z,97718.31
2023-01-17T19:46:35.273Z,97727.56
2023-01-17T19:49:03.633Z,97732.16
2023-01-17T19:51:31.111Z,97737.66
2023-01-17T19:54:01.061Z,97738.91
2023-01-17T19:56:29.648Z,97737.84
2023-01-17T19:59:01.218Z,97746.44
2023-01-17T20:01:30.540Z,97748.13
2023-01-17T20:04:00.299Z,97744.97
2023-01-17T20:06:29.933Z,97738.13
2023-01-17T20:08:57.940Z,97747.38
2023-01-17T20:11:26.148Z,97749.56
2023-01-17T20:13:55.438Z,97759.91
2023-01-17T20:16:23.583Z,97760.47
2023-01-17T20:18:51.356Z,97770.16
2023-01-17T20:21:22.016Z,97774.72
2023-01-17T20:23:50.626Z,97768.59
2023-01-17T20:26:19.964Z,97770.19
2023-01-17T20:28:49.419Z,97774.53
2023-01-17T20:31:19.017Z,97777.19
2023-01-17T20:33:50.153Z,97783.75
2023-01-17T20:36:20.544Z,97787.78
2023-01-17T20:38:48.898Z,97782.00
2023-01-17T20:41:18.880Z,97787.97
2023-01-17T20:43:47.942Z,97795.47
2023-01-17T20:46:16.560Z,97800.59
2023-01-17T20:48:44.853Z,97788.75
2023-01-17T20:51:12.504Z,97793.44
2023-01-17T20:53:43.263Z,97784.78
2023-01-17T20:56:12.676Z,97788.78
2023-01-17T20:58:40.158Z,97795.59
2023-01-17T21:01:10.088Z,97788.72
2023-01-17T21:03:38.415Z,97787.78
2023-01-17T21:06:08.325Z,97781.44
2023-01-17T21:08:37.481Z,97782.72
2023-01-17T21:11:08.073Z,97775.75
2023-01-17T21:13:35.852Z,97774.78
2023-01-17T21:16:03.883Z,97783.63
2023-01-17T21:18:32.078Z,97782.88
2023-01-17T21:21:05.034Z,97780.88
2023-01-17T21:23:32.561Z,97790.66
2023-01-17T21:26:00.000Z,97784.06
2023-01-17T21:28:30.747Z,97791.97
2023-01-17T21:30:58.631Z,97785.03
2023-01-17T21:33:30.073Z,97787.66
2023-01-17T21:36:07.683Z,97785.59
2023-01-17T21:38:35.091Z,97789.38
2023-01-17T21:41:02.764Z,97781.84
2023-01-17T21:43:31.554Z,97779.34
2023-01-17T21:46:02.849Z,97775.81
2023-01-17T21:48:30.290Z,97780.69
2023-01-17T21:51:04.420Z,97778.84
2023-01-17T21:53:33.072Z,97778.09
2023-01-17T21:56:27.252Z,97782.00
2023-01-17T21:58:57.860Z,97762.19
2023-01-17T22:01:27.905Z,97770.31
2023-01-17T22:03:57.435Z,97765.50
2023-01-17T22:06:26.711Z,97762.84
2023-01-17T22:08:54.404Z,97767.34
2023-01-17T22:11:23.388Z,97758.25
2023-01-17T22:13:50.977Z,97757.03
2023-01-17T22:16:23.220Z,97749.38
2023-01-17T22:18:51.681Z,97745.72
2023-01-17T22:21:21.143Z,97740.47
2023-01-17T22:23:50.749Z,97743.13
2023-01-17T22:26:19.433Z,97740.34
2023-01-17T22:28:46.824Z,97742.88
2023-01-17T22:31:16.146Z,97739.69
2023-01-17T22:33:48.518Z,97737.53
2023-01-17T22:36:15.925Z,97737.31
2023-01-17T22:38:44.211Z,97731.72
2023-01-17T22:41:13.391Z,97738.91
2023-01-17T22:43:42.241Z,97739.78
2023-01-17T22:46:11.543Z,97731.06
2023-01-17T22:48:40.077Z,97727.28
2023-01-17T22:51:10.088Z,97719.69
2023-01-17T22:53:40.750Z,97721.38
2023-01-17T22:56:10.157Z,97717.44
2023-01-17T22:58:37.637Z,97702.66
2023-01-17T23:01:06.553Z,97710.06
2023-01-17T23:03:34.705Z,97710.00
2023-01-17T23:06:10.740Z,97702.16
2023-01-17T23:08:39.023Z,97701.59
2023-01-17T23:11:39.730Z,97689.91
2023-01-17T23:14:13.655Z,97694.28
2023-01-17T23:17:00.630Z,97676.13
2023-01-17T23:19:30.069Z,97668.88
2023-01-17T23:22:19.902Z,97669.94
2023-01-17T23:24:50.425Z,97675.38
2023-01-17T23:27:37.754Z,97676.47
2023-01-17T23:30:07.306Z,97678.59
2023-01-17T23:32:34.743Z,97682.19
2023-01-17T23:35:02.126Z,97689.63
2023-01-17T23:37:45.641Z,97687.88
2023-01-17T23:40:13.848Z,97684.72
2023-01-17T23:42:58.949Z,97677.53
2023-01-17T23:45:26.574Z,97679.25
2023-01-17T23:47:53.969Z,97676.25
2023-01-17T23:50:21.527Z,97676.06
2023-01-17T23:52:50.205Z,97670.38
2023-01-17T23:55:18.018Z,97682.72
2023-01-17T23:57:45.587Z,97678.16
